MSC Florentina — HPFH — position and weather

sailwx.info

Track history (hours):
 
Tides and Currents Weather Stations Pressure Air Temp Water Temp Dewpoint Dewpoint Depression Visibility Wind Speed Wind Dir Waves Ship Positions

MSC Florentina

Last reported at 2017-Jan-10 22:15 UTC. Time now 2017-Jan-16 15:08 UTC.
Position S 22°45' W 041°31'.

Length 300 m; draft 11 m.

Type: Ship (hazmat cat A). MMSI: 352870000.

Date/timePositionNaut miles runAvg speedWind from/ knotsBaromVisibWave heightAir tempDewpointWater temp
2017-Jan-10 22:15S 22°45' W 041°31'1014.4
2017-Jan-10 21:33S 22°52' W 041°39'1414.4
2017-Jan-10 20:33S 23°02' W 041°50'1313.5
2017-Jan-10 19:34S 23°06' W 042°04'1614.4
2017-Jan-10 18:26S 23°05' W 042°22'1715.2
2017-Jan-10 17:20S 23°05' W 042°40'1215.7
2017-Jan-10 16:33S 23°04' W 042°53'1514.9
2017-Jan-10 15:33S 22°59' W 043°09'7 7.0
2017-Jan-10 14:33S 22°53' W 043°12'0 0.2
2017-Jan-10 13:29S 22°52' W 043°12'0 0.0
2017-Jan-10 12:29S 22°52' W 043°12'0 0.0
2017-Jan-10 11:29S 22°52' W 043°12'0 0.0
2017-Jan-10 10:29S 22°52' W 043°12'0 0.0
2017-Jan-10 09:23S 22°52' W 043°12'0 0.0
2017-Jan-10 08:29S 22°52' W 043°12'0 0.0
2017-Jan-10 07:29S 22°52' W 043°12'0 0.0
2017-Jan-10 06:23S 22°52' W 043°12'0 0.0
2017-Jan-10 05:29S 22°52' W 043°12'0 0.0
2017-Jan-10 04:17S 22°52' W 043°12'0 0.0
2017-Jan-10 03:29S 22°52' W 043°12'0 0.0
2017-Jan-10 02:05S 22°52' W 043°12'0 0.0
2017-Jan-10 01:29S 22°52' W 043°12'0 0.0
2017-Jan-10 00:29S 22°52' W 043°12'0 0.0
2017-Jan-09 23:29S 22°52' W 043°12'0 0.0
2017-Jan-09 22:23S 22°52' W 043°12'0 0.1
2017-Jan-09 21:33S 22°52' W 043°12'3 2.8
2017-Jan-09 20:33S 22°53' W 043°09'5 5.1
2017-Jan-09 19:33S 22°58' W 043°09'1110.3
2017-Jan-09 18:30S 23°09' W 043°13'11 1.4
2017-Jan-09 10:17S 23°18' W 043°19'15314.0
2017-Jan-08 23:21S 24°15' W 045°54'1215.5
2017-Jan-08 22:33S 24°15' W 046°08'1312.8
2017-Jan-08 21:33S 24°12' W 046°21'1211.8
2017-Jan-08 20:34S 24°00' W 046°20'3 3.0
2017-Jan-08 19:25S 23°58' W 046°18'0 0.0
2017-Jan-08 18:22S 23°58' W 046°18'0 0.0
2017-Jan-08 17:31S 23°58' W 046°18'0 0.0
2017-Jan-08 16:28S 23°58' W 046°18'0 0.0
2017-Jan-08 15:31S 23°58' W 046°18'0 0.0
2017-Jan-08 14:25S 23°58' W 046°18'0 0.0
2017-Jan-08 13:31S 23°58' W 046°18'0 0.0
2017-Jan-08 12:31S 23°58' W 046°18'0 0.0
2017-Jan-08 11:31S 23°58' W 046°18'0 0.0
2017-Jan-08 10:25S 23°58' W 046°18'0 0.0
2017-Jan-08 09:31S 23°58' W 046°18'0 0.0
2017-Jan-08 08:31S 23°58' W 046°18'0 0.0
2017-Jan-08 07:31S 23°58' W 046°18'0 0.0
2017-Jan-08 06:31S 23°58' W 046°18'0 0.0
2017-Jan-08 05:25S 23°58' W 046°18'0 0.0
2017-Jan-08 04:31S 23°58' W 046°18'0 0.0
2017-Jan-08 03:31S 23°58' W 046°18'0 0.0
2017-Jan-08 02:31S 23°58' W 046°18'0 0.0
2017-Jan-08 01:31S 23°58' W 046°18'4 3.9
2017-Jan-08 00:33S 24°01' W 046°20'10 9.9
2017-Jan-07 23:33S 24°10' W 046°23'1615.8
2017-Jan-07 22:33S 24°24' W 046°31'1817.8
2017-Jan-07 21:33S 24°39' W 046°43'  
2017-Jan-04 20:21S 25°53' W 048°22'7 8.4
2017-Jan-04 19:33S 25°60' W 048°24'9 0.9
2017-Jan-04 09:28S 26°09' W 048°24'1210.5
2017-Jan-04 08:18S 26°00' W 048°15'911.4
2017-Jan-04 07:33S 25°54' W 048°08'1711.8
2017-Jan-04 06:09S 25°42' W 047°55'5811.9
2017-Jan-04 01:19S 25°02' W 047°10'2511.9
2017-Jan-03 23:15S 24°45' W 046°50'1012.0
2017-Jan-03 22:28S 24°38' W 046°43'1213.7
2017-Jan-03 21:33S 24°29' W 046°33'1514.5
2017-Jan-03 20:33S 24°15' W 046°27'1414.4
2017-Jan-03 19:33S 24°02' W 046°21'5 5.3
2017-Jan-03 18:33S 23°58' W 046°18'0 0.0
2017-Jan-03 17:33S 23°58' W 046°18'0 0.0
2017-Jan-03 16:33S 23°58' W 046°18'0 0.0
2017-Jan-03 12:09S 23°58' W 046°18'0 0.0
2017-Jan-03 06:21S 23°58' W 046°18'0 0.0
2017-Jan-03 05:33S 23°58' W 046°18'0 0.0
2017-Jan-03 04:27S 23°58' W 046°18'0 0.0
2017-Jan-03 03:21S 23°58' W 046°18'0 0.0
2017-Jan-03 01:27S 23°58' W 046°18'0 0.0
2017-Jan-03 00:33S 23°58' W 046°18'4 4.4
2017-Jan-02 23:33S 24°01' W 046°21'9 9.4
2017-Jan-02 22:34S 24°07' W 046°28'0 0.2
2017-Jan-02 21:33S 24°08' W 046°28'1 0.7
2017-Jan-02 20:33S 24°08' W 046°27'1 0.6
2017-Jan-02 19:33S 24°08' W 046°27'1 0.7
2017-Jan-02 18:33S 24°09' W 046°27'1 0.9
2017-Jan-02 17:33S 24°10' W 046°26'0 0.4
2017-Jan-02 16:33S 24°10' W 046°26'1 0.6
2017-Jan-02 15:33S 24°11' W 046°25'1 0.6
2017-Jan-02 14:33S 24°11' W 046°25'2 2.3
2017-Jan-02 13:33S 24°13' W 046°24'1211.7
2017-Jan-02 12:34S 24°15' W 046°11'1817.2
2017-Jan-02 11:30S 24°18' W 045°51'2216.8
2017-Jan-02 10:11S 24°18' W 045°27'1117.5
2017-Jan-02 09:33S 24°15' W 045°15'7817.7
2017-Jan-02 05:09S 23°52' W 043°53'6618.4
2017-Jan-02 01:32S 23°32' W 042°44'1818.2
2017-Jan-02 00:33S 23°27' W 042°26'1717.5
2017-Jan-01 23:34S 23°22' W 042°08'1817.5
2017-Jan-01 22:34S 23°13' W 041°51'1817.7
2017-Jan-01 21:34S 23°01' W 041°37'2118.0
2017-Jan-01 20:24S 22°47' W 041°20'2117.8
2017-Jan-01 19:13S 22°33' W 041°03'1217.9
2017-Jan-01 18:33S 22°25' W 040°54'  
Track history (hours):
 
Tides and Currents Weather Stations Pressure Air Temp Water Temp Dewpoint Dewpoint Depression Visibility Wind Speed Wind Dir Waves Ship Positions

MSC Florentina

Last reported at 2017-Jan-10 22:15 UTC. Time now 2017-Jan-16 15:08 UTC.
Position S 22°45' W 041°31'.

Length 300 m; draft 11 m.

Type: Ship (hazmat cat A). MMSI: 352870000.

Date/timePositionNaut miles runAvg speedWind from/ knotsBaromVisibWave heightAir tempDewpointWater temp
2017-Jan-10 22:15S 22°45' W 041°31'1014.4
2017-Jan-10 21:33S 22°52' W 041°39'1414.4
2017-Jan-10 20:33S 23°02' W 041°50'1313.5
2017-Jan-10 19:34S 23°06' W 042°04'1614.4
2017-Jan-10 18:26S 23°05' W 042°22'1715.2
2017-Jan-10 17:20S 23°05' W 042°40'1215.7
2017-Jan-10 16:33S 23°04' W 042°53'1514.9
2017-Jan-10 15:33S 22°59' W 043°09'7 7.0
2017-Jan-10 14:33S 22°53' W 043°12'0 0.2
2017-Jan-10 13:29S 22°52' W 043°12'0 0.0
2017-Jan-10 12:29S 22°52' W 043°12'0 0.0
2017-Jan-10 11:29S 22°52' W 043°12'0 0.0
2017-Jan-10 10:29S 22°52' W 043°12'0 0.0
2017-Jan-10 09:23S 22°52' W 043°12'0 0.0
2017-Jan-10 08:29S 22°52' W 043°12'0 0.0
2017-Jan-10 07:29S 22°52' W 043°12'0 0.0
2017-Jan-10 06:23S 22°52' W 043°12'0 0.0
2017-Jan-10 05:29S 22°52' W 043°12'0 0.0
2017-Jan-10 04:17S 22°52' W 043°12'0 0.0
2017-Jan-10 03:29S 22°52' W 043°12'0 0.0
2017-Jan-10 02:05S 22°52' W 043°12'0 0.0
2017-Jan-10 01:29S 22°52' W 043°12'0 0.0
2017-Jan-10 00:29S 22°52' W 043°12'0 0.0
2017-Jan-09 23:29S 22°52' W 043°12'0 0.0
2017-Jan-09 22:23S 22°52' W 043°12'0 0.1
2017-Jan-09 21:33S 22°52' W 043°12'3 2.8
2017-Jan-09 20:33S 22°53' W 043°09'5 5.1
2017-Jan-09 19:33S 22°58' W 043°09'1110.3
2017-Jan-09 18:30S 23°09' W 043°13'11 1.4
2017-Jan-09 10:17S 23°18' W 043°19'15314.0
2017-Jan-08 23:21S 24°15' W 045°54'1215.5
2017-Jan-08 22:33S 24°15' W 046°08'1312.8
2017-Jan-08 21:33S 24°12' W 046°21'1211.8
2017-Jan-08 20:34S 24°00' W 046°20'3 3.0
2017-Jan-08 19:25S 23°58' W 046°18'0 0.0
2017-Jan-08 18:22S 23°58' W 046°18'0 0.0
2017-Jan-08 17:31S 23°58' W 046°18'0 0.0
2017-Jan-08 16:28S 23°58' W 046°18'0 0.0
2017-Jan-08 15:31S 23°58' W 046°18'0 0.0
2017-Jan-08 14:25S 23°58' W 046°18'0 0.0
2017-Jan-08 13:31S 23°58' W 046°18'0 0.0
2017-Jan-08 12:31S 23°58' W 046°18'0 0.0
2017-Jan-08 11:31S 23°58' W 046°18'0 0.0
2017-Jan-08 10:25S 23°58' W 046°18'0 0.0
2017-Jan-08 09:31S 23°58' W 046°18'0 0.0
2017-Jan-08 08:31S 23°58' W 046°18'0 0.0
2017-Jan-08 07:31S 23°58' W 046°18'0 0.0
2017-Jan-08 06:31S 23°58' W 046°18'0 0.0
2017-Jan-08 05:25S 23°58' W 046°18'0 0.0
2017-Jan-08 04:31S 23°58' W 046°18'0 0.0
2017-Jan-08 03:31S 23°58' W 046°18'0 0.0
2017-Jan-08 02:31S 23°58' W 046°18'0 0.0
2017-Jan-08 01:31S 23°58' W 046°18'4 3.9
2017-Jan-08 00:33S 24°01' W 046°20'10 9.9
2017-Jan-07 23:33S 24°10' W 046°23'1615.8
2017-Jan-07 22:33S 24°24' W 046°31'1817.8
2017-Jan-07 21:33S 24°39' W 046°43'  
2017-Jan-04 20:21S 25°53' W 048°22'7 8.4
2017-Jan-04 19:33S 25°60' W 048°24'9 0.9
2017-Jan-04 09:28S 26°09' W 048°24'1210.5
2017-Jan-04 08:18S 26°00' W 048°15'911.4
2017-Jan-04 07:33S 25°54' W 048°08'1711.8
2017-Jan-04 06:09S 25°42' W 047°55'5811.9
2017-Jan-04 01:19S 25°02' W 047°10'2511.9
2017-Jan-03 23:15S 24°45' W 046°50'1012.0
2017-Jan-03 22:28S 24°38' W 046°43'1213.7
2017-Jan-03 21:33S 24°29' W 046°33'1514.5
2017-Jan-03 20:33S 24°15' W 046°27'1414.4
2017-Jan-03 19:33S 24°02' W 046°21'5 5.3
2017-Jan-03 18:33S 23°58' W 046°18'0 0.0
2017-Jan-03 17:33S 23°58' W 046°18'0 0.0
2017-Jan-03 16:33S 23°58' W 046°18'0 0.0
2017-Jan-03 12:09S 23°58' W 046°18'0 0.0
2017-Jan-03 06:21S 23°58' W 046°18'0 0.0
2017-Jan-03 05:33S 23°58' W 046°18'0 0.0
2017-Jan-03 04:27S 23°58' W 046°18'0 0.0
2017-Jan-03 03:21S 23°58' W 046°18'0 0.0
2017-Jan-03 01:27S 23°58' W 046°18'0 0.0
2017-Jan-03 00:33S 23°58' W 046°18'4 4.4
2017-Jan-02 23:33S 24°01' W 046°21'9 9.4
2017-Jan-02 22:34S 24°07' W 046°28'0 0.2
2017-Jan-02 21:33S 24°08' W 046°28'1 0.7
2017-Jan-02 20:33S 24°08' W 046°27'1 0.6
2017-Jan-02 19:33S 24°08' W 046°27'1 0.7
2017-Jan-02 18:33S 24°09' W 046°27'1 0.9
2017-Jan-02 17:33S 24°10' W 046°26'0 0.4
2017-Jan-02 16:33S 24°10' W 046°26'1 0.6
2017-Jan-02 15:33S 24°11' W 046°25'1 0.6
2017-Jan-02 14:33S 24°11' W 046°25'2 2.3
2017-Jan-02 13:33S 24°13' W 046°24'1211.7
2017-Jan-02 12:34S 24°15' W 046°11'1817.2
2017-Jan-02 11:30S 24°18' W 045°51'2216.8
2017-Jan-02 10:11S 24°18' W 045°27'1117.5
2017-Jan-02 09:33S 24°15' W 045°15'7817.7
2017-Jan-02 05:09S 23°52' W 043°53'6618.4
2017-Jan-02 01:32S 23°32' W 042°44'1818.2
2017-Jan-02 00:33S 23°27' W 042°26'1717.5
2017-Jan-01 23:34S 23°22' W 042°08'1817.5
2017-Jan-01 22:34S 23°13' W 041°51'1817.7
2017-Jan-01 21:34S 23°01' W 041°37'2118.0
2017-Jan-01 20:24S 22°47' W 041°20'2117.8
2017-Jan-01 19:13S 22°33' W 041°03'1217.9
2017-Jan-01 18:33S 22°25' W 040°54'  

Dump ship's entire track history